createdAt,value
2022-09-22T00:04:18.023Z,95.07
2022-09-22T00:09:17.918Z,95.39
2022-09-22T00:14:17.929Z,95.45
2022-09-22T00:19:17.867Z,95.45
2022-09-22T00:24:17.845Z,95.28
2022-09-22T00:29:17.687Z,95.39
2022-09-22T00:34:17.651Z,95.39
2022-09-22T00:39:17.659Z,95.43
2022-09-22T00:44:17.530Z,95.53
2022-09-22T00:49:17.444Z,95.64
2022-09-22T00:54:17.592Z,95.64
2022-09-22T00:59:19.447Z,95.74
2022-09-22T01:04:17.459Z,95.68
2022-09-22T01:09:17.389Z,95.68
2022-09-22T01:14:17.345Z,95.99
2022-09-22T01:19:17.154Z,95.99
2022-09-22T01:24:17.106Z,95.94
2022-09-22T01:29:17.035Z,96.14
2022-09-22T01:34:16.974Z,96.24
2022-09-22T01:39:16.988Z,96.24
2022-09-22T01:44:16.916Z,96.14
2022-09-22T01:49:16.876Z,96.24
2022-09-22T01:54:16.836Z,96.34
2022-09-22T01:59:16.721Z,96.45
2022-09-22T02:04:16.668Z,96.34
2022-09-22T02:09:16.613Z,96.55
2022-09-22T02:14:16.650Z,96.55
2022-09-22T02:19:16.496Z,96.55
2022-09-22T02:24:16.526Z,96.55
2022-09-22T02:29:16.395Z,96.55
2022-09-22T02:34:16.374Z,96.45
2022-09-22T02:39:16.323Z,96.55
2022-09-22T02:44:16.222Z,96.55
2022-09-22T02:49:16.234Z,96.59
2022-09-22T02:54:19.537Z,96.59
2022-09-22T02:59:16.187Z,96.80
2022-09-22T03:04:16.165Z,96.80
2022-09-22T03:09:15.985Z,96.70
2022-09-22T03:14:16.903Z,96.70
2022-09-22T03:19:15.866Z,96.70
2022-09-22T03:24:15.833Z,96.91
2022-09-22T03:29:15.747Z,96.91
2022-09-22T03:34:15.707Z,96.95
2022-09-22T03:39:15.728Z,96.95
2022-09-22T03:44:15.679Z,97.06
2022-09-22T03:49:15.613Z,97.16
2022-09-22T03:54:15.489Z,97.06
2022-09-22T03:59:15.424Z,97.06
2022-09-22T04:04:15.357Z,96.95
2022-09-22T04:09:16.494Z,96.95
2022-09-22T04:14:15.223Z,96.95
2022-09-22T04:19:15.240Z,96.95
2022-09-22T04:24:15.214Z,97.00
2022-09-22T04:29:18.678Z,97.00
2022-09-22T04:34:15.017Z,97.00
2022-09-22T04:39:17.436Z,97.10
2022-09-22T04:44:15.359Z,97.20
2022-09-22T04:49:15.262Z,97.10
2022-09-22T04:54:15.258Z,97.20
2022-09-22T04:59:16.059Z,97.10
2022-09-22T05:04:16.045Z,97.10
2022-09-22T05:09:17.182Z,97.10
2022-09-22T06:41:47.832Z,97.08
2022-09-22T06:46:47.903Z,97.14
2022-09-22T06:51:47.895Z,97.20
2022-09-22T06:56:47.842Z,97.26
2022-09-22T07:01:47.749Z,97.31
2022-09-22T07:06:47.684Z,97.53
2022-09-22T07:11:47.665Z,97.44
2022-09-22T07:16:47.678Z,97.30
2022-09-22T07:21:47.552Z,96.90
2022-09-22T07:26:47.346Z,96.50
2022-09-22T07:31:48.462Z,94.67
2022-09-22T07:36:47.301Z,92.53
2022-09-22T07:41:48.671Z,90.15
2022-09-22T07:46:47.253Z,87.41
2022-09-22T07:51:51.560Z,85.28
2022-09-22T07:56:47.220Z,83.51
2022-09-22T08:01:50.438Z,81.59
2022-09-22T08:06:48.323Z,80.29
2022-09-22T08:11:46.818Z,79.10
2022-09-22T08:16:46.798Z,77.81
2022-09-22T08:21:49.330Z,76.51
2022-09-22T08:26:49.417Z,75.32
2022-09-22T08:31:47.066Z,71.50
2022-09-22T08:36:46.935Z,69.10
2022-09-22T08:41:48.489Z,69.27
2022-09-22T08:46:46.512Z,67.11
2022-09-22T08:51:46.526Z,65.26
2022-09-22T08:56:54.448Z,60.58
2022-09-22T09:01:46.458Z,58.91
2022-09-22T09:06:47.490Z,61.60
2022-09-22T09:11:47.259Z,58.45
2022-09-22T09:16:46.160Z,58.59
2022-09-22T09:21:46.175Z,55.36
2022-09-22T09:26:46.075Z,56.35
2022-09-22T09:31:46.033Z,57.73
2022-09-22T09:36:45.895Z,53.58
2022-09-22T09:41:46.398Z,54.28
2022-09-22T09:46:47.674Z,54.33
2022-09-22T09:51:46.021Z,54.66
2022-09-22T09:56:45.770Z,52.42
2022-09-22T10:01:45.893Z,50.58
2022-09-22T10:06:45.660Z,54.00
2022-09-22T10:11:46.602Z,50.98
2022-09-22T10:16:45.610Z,50.96
2022-09-22T10:21:45.597Z,50.48
2022-09-22T10:26:45.567Z,49.15
2022-09-22T10:31:45.416Z,49.55
2022-09-22T10:36:45.338Z,49.33
2022-09-22T10:41:45.223Z,49.21
2022-09-22T10:46:45.263Z,48.32
2022-09-22T10:51:45.107Z,47.54
2022-09-22T10:56:45.045Z,48.99
2022-09-22T11:01:45.048Z,49.30
2022-09-22T11:06:44.926Z,48.25
2022-09-22T11:11:44.954Z,46.64
2022-09-22T11:16:44.841Z,49.83
2022-09-22T11:21:44.787Z,47.67
2022-09-22T11:26:44.861Z,46.17
2022-09-22T11:31:46.717Z,47.45
2022-09-22T11:36:48.038Z,44.44
2022-09-22T11:41:45.665Z,43.96
2022-09-22T11:46:44.606Z,48.68
2022-09-22T11:51:44.514Z,45.87
2022-09-22T11:56:44.452Z,46.11
2022-09-22T12:01:44.342Z,44.89
2022-09-22T12:06:44.300Z,43.68
2022-09-22T12:11:44.266Z,43.14
2022-09-22T12:16:44.228Z,43.64
2022-09-22T12:21:44.179Z,43.54
2022-09-22T12:26:44.094Z,42.54
2022-09-22T12:31:44.031Z,46.27
2022-09-22T12:36:44.076Z,44.67
2022-09-22T12:41:44.057Z,42.16
2022-09-22T12:46:43.961Z,41.74
2022-09-22T12:51:43.827Z,43.66
2022-09-22T12:56:43.857Z,42.96
2022-09-22T13:01:43.872Z,44.87
2022-09-22T13:06:43.744Z,44.06
2022-09-22T13:11:43.662Z,45.57
2022-09-22T13:16:43.821Z,44.36
2022-09-22T13:21:43.655Z,41.87
2022-09-22T13:26:43.876Z,43.10
2022-09-22T13:31:43.450Z,41.89
2022-09-22T13:36:43.340Z,44.31
2022-09-22T13:41:43.432Z,42.80
2022-09-22T13:46:43.273Z,44.93
2022-09-22T13:51:43.197Z,44.75
2022-09-22T13:56:43.335Z,47.46
2022-09-22T14:01:43.254Z,45.15
2022-09-22T14:06:43.279Z,43.87
2022-09-22T14:11:43.089Z,47.11
2022-09-22T14:16:43.165Z,47.11
2022-09-22T14:21:42.917Z,46.42
2022-09-22T14:26:42.880Z,48.44
2022-09-22T14:31:42.899Z,47.35
2022-09-22T14:36:42.851Z,46.25
2022-09-22T14:41:42.789Z,47.05
2022-09-22T14:46:42.680Z,47.96
2022-09-22T14:51:42.660Z,49.09
2022-09-22T14:56:42.537Z,47.88
2022-09-22T15:01:42.394Z,47.17
2022-09-22T15:06:42.165Z,48.00
2022-09-22T15:11:43.268Z,48.30
2022-09-22T15:16:42.269Z,47.70
2022-09-22T15:21:42.182Z,48.71
2022-09-22T15:26:42.281Z,48.61
2022-09-22T15:31:42.016Z,50.52
2022-09-22T15:36:41.824Z,52.56
2022-09-22T15:41:41.901Z,49.74
2022-09-22T15:46:42.130Z,51.48
2022-09-22T15:51:41.910Z,51.25
2022-09-22T15:56:41.884Z,52.56
2022-09-22T16:01:41.895Z,51.50
2022-09-22T16:06:42.116Z,52.59
2022-09-22T16:11:41.798Z,53.93
2022-09-22T16:16:41.772Z,55.16
2022-09-22T16:21:41.569Z,54.96
2022-09-22T16:26:41.519Z,54.05
2022-09-22T16:31:41.586Z,53.58
2022-09-22T16:36:41.382Z,55.19
2022-09-22T16:41:41.377Z,55.69
2022-09-22T16:46:41.439Z,57.44
2022-09-22T16:51:41.218Z,59.09
2022-09-22T16:56:41.278Z,60.94
2022-09-22T17:01:41.235Z,62.29
2022-09-22T17:06:41.121Z,63.02
2022-09-22T17:11:42.018Z,63.56
2022-09-22T17:16:41.113Z,64.20
2022-09-22T17:21:40.879Z,64.15
2022-09-22T17:26:40.962Z,66.08
2022-09-22T17:31:40.974Z,65.51
2022-09-22T17:36:40.791Z,64.93
2022-09-22T17:41:44.323Z,66.96
2022-09-22T17:46:40.773Z,66.69
2022-09-22T17:51:40.512Z,67.33
2022-09-22T17:56:40.525Z,69.49
2022-09-22T18:01:40.504Z,69.60
2022-09-22T18:06:40.366Z,71.77
2022-09-22T18:11:40.468Z,72.41
2022-09-22T18:16:40.315Z,73.47
2022-09-22T18:21:40.253Z,74.32
2022-09-22T18:26:40.260Z,75.27
2022-09-22T18:31:40.151Z,75.98
2022-09-22T18:36:40.088Z,76.73
2022-09-22T18:41:40.188Z,76.73
2022-09-22T18:46:40.112Z,77.59
2022-09-22T18:51:40.170Z,78.13
2022-09-22T18:56:40.023Z,78.44
2022-09-22T19:01:41.018Z,79.19
2022-09-22T19:06:40.784Z,79.80
2022-09-22T19:11:40.839Z,80.76
2022-09-22T19:16:39.622Z,81.51
2022-09-22T19:21:39.564Z,82.13
2022-09-22T19:26:39.508Z,82.54
2022-09-22T19:31:39.507Z,83.09
2022-09-22T19:36:39.505Z,83.19
2022-09-22T19:41:39.374Z,84.25
2022-09-22T19:46:39.317Z,84.77
2022-09-22T19:51:39.749Z,84.70
2022-09-22T19:56:40.205Z,85.31
2022-09-22T20:01:39.106Z,85.83
2022-09-22T20:06:39.077Z,86.28
2022-09-22T20:11:38.968Z,86.79
2022-09-22T20:16:38.936Z,87.20
2022-09-22T20:21:39.048Z,87.14
2022-09-22T20:26:38.916Z,87.45
2022-09-22T20:31:39.047Z,87.76
2022-09-22T20:36:39.724Z,87.96
2022-09-22T20:41:38.758Z,88.41
2022-09-22T20:46:38.737Z,88.41
2022-09-22T20:51:38.604Z,88.51
2022-09-22T20:56:42.597Z,88.51
2022-09-22T21:01:38.459Z,88.62
2022-09-22T21:06:38.467Z,88.41
2022-09-22T21:11:38.446Z,88.10
2022-09-22T21:16:38.268Z,88.51
2022-09-22T21:21:38.373Z,88.00
2022-09-22T21:26:38.152Z,88.24
2022-09-22T21:31:38.206Z,88.56
2022-09-22T21:36:38.112Z,88.66
2022-09-22T21:41:38.044Z,88.31
2022-09-22T21:46:38.040Z,87.70
2022-09-22T21:51:37.865Z,87.08
2022-09-22T21:56:38.966Z,86.98
2022-09-22T22:01:39.924Z,87.32
2022-09-22T22:06:37.933Z,87.63
2022-09-22T22:11:37.890Z,88.18
2022-09-22T22:16:38.640Z,87.94
2022-09-22T22:21:37.629Z,87.43
2022-09-22T22:26:37.642Z,87.32
2022-09-22T22:31:37.606Z,87.98
2022-09-22T22:36:37.527Z,88.18
2022-09-22T22:41:37.423Z,88.18
2022-09-22T22:46:37.475Z,87.67
2022-09-22T22:51:37.360Z,87.57
2022-09-22T22:56:41.533Z,87.02
2022-09-22T23:01:38.283Z,87.12
2022-09-22T23:06:37.126Z,87.02
2022-09-22T23:11:37.005Z,86.95
2022-09-22T23:16:36.962Z,87.05
2022-09-22T23:21:36.978Z,88.08
2022-09-22T23:26:36.800Z,87.98
2022-09-22T23:31:36.747Z,88.53
2022-09-22T23:36:36.957Z,88.74
2022-09-22T23:41:37.754Z,88.95
2022-09-22T23:46:36.710Z,88.80
2022-09-22T23:51:36.698Z,88.08
2022-09-22T23:56:36.581Z,87.88
